Quinlan, TX

11:10 AM CDT on 30. Mars 2015 (GMT -0500)
Deer Park | | Change Station
CLOSE
Current Station
Personal Weather Stations
Location: Quinlan, TX
Elevation: 469 ft
Nearby Weather Stations

Elev 469 ft 32.88 °N, 96.10 °W | Updated 1 second ago

Alskýjað
Alskýjað
66.0 °F
Feels Like 66.0 °F
N
8.1
Vindur Breytileg vindátt Vindur from SA
Gusts 8.1 mph

Í dag
High -- | Low -- °F
--% Chance of Precip.
Yesterday
High -- | Low -- °F
Precip. -- in
7:15 AM 7:43 PM
Waxing Gibbous, 80% visible
Loftþrýstingur 30.19 in
Skyggni 5.0 miles
Clouds Alskýjað 600 ft
Daggarmark 60 °F
Raki 81%
Rainfall 0.00 in
Snow Depth Not available.
UV 2 out of 12
Pollen 11.60 out of 12
Air Quality Not available.
Flu Activity Not available.
METAR KGVT 301555Z AUTO 13006KT 5SM BR OVC006 18/17 A3019 RMK AO2

More Conditions Fewer Conditions

Loftþrýstingur 30.19 in
Skyggni 5.0 miles
Clouds Alskýjað 600 ft
Daggarmark 60 °F
Raki 81%
Rainfall 0.00 in
Snow Depth Not available.
UV 2 out of 12
Pollen 11.60 out of 12
Air Quality Not available.
Flu Activity Not available.
METAR KGVT 301555Z AUTO 13006KT 5SM BR OVC006 18/17 A3019 RMK AO2

More Conditions Fewer Conditions

10-Day Weather Forecast

Almanac

Astronomy

Mar. 30, 2015 Rise Set
Actual Time
Civil Twilight
Nautical Twilight
Astronomical Twilight
Moon
Length Of Visible Light
Length of Day
Tomorrow will be .
, % of the Moon is Illuminated

Today's Extremes

State Highs State Lows

Community

WunderPhotos

Upload Photos

1,809,527 photos uploaded!

WunderBlogs® & News

Nearby

Air Quality

  Air Quality AQ Index Pollutant
Not available.

Snow Depth

Station Depth Elevation

Earthquake Activity

Staður Distance Mag. Time & Date
Minimum magnitude displayed is 2.5.

Coastal Water Temperatures

Staður Hitastig

Stations

Nearby Weather Stations

Station Location Temp Vindkæling Daggarmark Raki Vindur Precip. Elev Uppfært Type